Time;durP1;ratioP1;P1;durP2;ratioP2;P2;SDS_P1;SDS_P2;PMS_P1;PMS_P2;Temp;Humidity;BMP_temperature;BMP_pressure;BME280_temperature;BME280_humidity;BME280_pressure;Samples;Min_cycle;Max_cycle;Signal;HPM_P1;HPM_P2
2022/12/07 00:02:19;;;;;;;12.53;6.40;;;;;;;;;;5029889;28;20021;-59
2022/12/07 00:04:44;;;;;;;13.38;6.40;;;;;;;;;;5030007;28;20044;-58
2022/12/07 00:07:09;;;;;;;13.53;6.20;;;;;;;;;;5026168;28;20505;-58
2022/12/07 00:09:34;;;;;;;14.77;6.63;;;;;;;;;;5030225;28;20037;-58
2022/12/07 00:12:00;;;;;;;12.97;6.20;;;;;;;;;;5028393;28;20103;-58
2022/12/07 00:14:25;;;;;;;15.13;7.07;;;;;;;;;;5029836;28;20037;-58
2022/12/07 00:16:51;;;;;;;13.77;6.70;;;;;;;;;;5026275;28;20024;-58
2022/12/07 00:19:16;;;;;;;13.10;6.68;;;;;;;;;;5027896;28;20372;-58
2022/12/07 00:21:42;;;;;;;15.30;6.40;;;;;;;;;;5028450;28;20021;-58
2022/12/07 00:24:07;;;;;;;14.77;5.95;;;;;;;;;;5027396;28;20017;-58
2022/12/07 00:26:34;;;;;;;14.30;7.15;;;;;;;;;;5027103;28;20025;-58
2022/12/07 00:29:00;;;;;;;13.00;6.68;;;;;;;;;;5028471;28;20435;-58
2022/12/07 00:31:27;;;;;;;14.20;6.38;;;;;;;;;;5028175;28;20028;-58
2022/12/07 00:33:52;;;;;;;13.50;6.50;;;;;;;;;;5028406;28;20037;-58
2022/12/07 00:36:19;;;;;;;13.90;6.37;;;;;;;;;;5028496;28;20021;-58
2022/12/07 00:38:44;;;;;;;12.45;5.63;;;;;;;;;;5025896;28;20031;-58
2022/12/07 00:41:14;;;;;;;13.07;6.27;;;;;;;;;;5025247;28;20509;-58
2022/12/07 00:43:40;;;;;;;13.80;6.38;;;;;;;;;;5025333;28;20096;-58
2022/12/07 00:46:05;;;;;;;13.18;5.38;;;;;;;;;;5026451;28;20453;-58
2022/12/07 00:48:30;;;;;;;13.23;6.60;;;;;;;;;;5026150;28;20104;-58
2022/12/07 00:50:56;;;;;;;13.57;6.17;;;;;;;;;;5028228;28;20030;-58
2022/12/07 00:53:21;;;;;;;13.50;6.77;;;;;;;;;;5028286;28;20511;-58
2022/12/07 00:55:46;;;;;;;15.23;6.53;;;;;;;;;;5028925;28;20444;-57
2022/12/07 00:58:11;;;;;;;14.10;6.13;;;;;;;;;;5026382;28;20030;-57
2022/12/07 01:00:38;;;;;;;17.33;7.60;;;;;;;;;;5028073;28;20383;-57
2022/12/07 01:03:04;;;;;;;14.20;6.70;;;;;;;;;;5028458;28;20404;-58
2022/12/07 01:05:29;;;;;;;12.38;5.78;;;;;;;;;;5028889;28;20021;-58
2022/12/07 01:07:54;;;;;;;16.40;7.13;;;;;;;;;;5024927;28;20064;-58
2022/12/07 01:10:19;;;;;;;16.40;7.57;;;;;;;;;;5028816;28;20488;-58
2022/12/07 01:12:44;;;;;;;15.30;6.80;;;;;;;;;;5025640;28;20136;-58
2022/12/07 01:15:10;;;;;;;16.83;6.53;;;;;;;;;;5028303;28;20376;-58
2022/12/07 01:17:35;;;;;;;14.77;6.80;;;;;;;;;;5027566;28;20017;-58
2022/12/07 01:20:01;;;;;;;14.63;6.80;;;;;;;;;;5026341;28;20030;-58
2022/12/07 01:22:26;;;;;;;16.70;7.20;;;;;;;;;;5028180;28;20033;-58
2022/12/07 01:24:51;;;;;;;17.53;7.37;;;;;;;;;;5032269;28;20495;-58
2022/12/07 01:27:16;;;;;;;19.50;7.87;;;;;;;;;;5031806;28;20029;-58
2022/12/07 01:29:42;;;;;;;15.53;7.73;;;;;;;;;;5029958;28;20056;-59
2022/12/07 01:32:07;;;;;;;15.37;6.80;;;;;;;;;;5030633;28;20025;-58
2022/12/07 01:34:32;;;;;;;12.88;5.90;;;;;;;;;;5032743;28;20028;-58
2022/12/07 01:36:57;;;;;;;17.55;7.50;;;;;;;;;;5032811;28;20087;-58
2022/12/07 01:39:23;;;;;;;13.10;5.90;;;;;;;;;;5028730;28;20399;-58
2022/12/07 01:41:48;;;;;;;14.15;6.75;;;;;;;;;;5031503;28;20049;-58
2022/12/07 01:44:18;;;;;;;13.77;6.67;;;;;;;;;;5029947;28;20071;-58
2022/12/07 01:46:50;;;;;;;15.38;6.30;;;;;;;;;;5032542;28;20033;-58
2022/12/07 01:49:30;;;;;;;16.40;6.68;;;;;;;;;;5027283;28;20030;-58
2022/12/07 01:52:00;;;;;;;15.48;6.63;;;;;;;;;;5031619;28;20037;-58
2022/12/07 01:54:25;;;;;;;13.88;6.47;;;;;;;;;;5031353;28;20014;-58
2022/12/07 01:56:53;;;;;;;15.20;6.70;;;;;;;;;;5032692;28;20059;-57
2022/12/07 01:59:21;;;;;;;16.73;7.43;;;;;;;;;;5030446;28;20033;-58
2022/12/07 02:01:46;;;;;;;17.02;6.70;;;;;;;;;;5031183;28;20449;-58
2022/12/07 02:04:11;;;;;;;15.70;7.00;;;;;;;;;;5031367;28;20040;-58
2022/12/07 02:06:37;;;;;;;13.00;5.63;;;;;;;;;;5031494;28;20413;-58
2022/12/07 02:09:02;;;;;;;13.75;6.45;;;;;;;;;;5029639;28;20037;-57
2022/12/07 02:11:28;;;;;;;12.55;5.57;;;;;;;;;;5030601;28;20018;-58
2022/12/07 02:13:53;;;;;;;12.77;5.63;;;;;;;;;;5030600;28;20025;-57
2022/12/07 02:16:25;;;;;;;9.85;4.53;;;;;;;;;;5032221;28;20562;-56
2022/12/07 02:19:16;;;;;;;11.23;4.82;;;;;;;;;;5030542;28;20032;-58
2022/12/07 02:21:41;;;;;;;11.48;4.90;;;;;;;;;;5029032;28;20111;-56
2022/12/07 02:24:14;;;;;;;12.35;5.50;;;;;;;;;;5031013;28;20189;-57
2022/12/07 02:26:39;;;;;;;11.95;5.50;;;;;;;;;;5031610;28;20085;-57
2022/12/07 02:29:19;;;;;;;13.52;5.95;;;;;;;;;;5030727;28;20556;-57
2022/12/07 02:32:11;;;;;;;11.05;4.50;;;;;;;;;;5024685;28;20017;-56
2022/12/07 02:34:39;;;;;;;9.93;4.72;;;;;;;;;;5021362;28;20231;-58
2022/12/07 02:37:09;;;;;;;11.38;4.82;;;;;;;;;;5030157;28;20025;-57
2022/12/07 02:39:41;;;;;;;10.45;4.97;;;;;;;;;;5031588;28;20481;-57
2022/12/07 02:42:13;;;;;;;14.07;5.15;;;;;;;;;;5020647;28;20026;-58
2022/12/07 02:44:39;;;;;;;11.02;5.05;;;;;;;;;;5030551;28;20017;-58
2022/12/07 02:47:06;;;;;;;10.13;4.72;;;;;;;;;;5028821;28;20028;-58
2022/12/07 02:49:31;;;;;;;11.00;5.00;;;;;;;;;;5030320;28;20126;-58
2022/12/07 02:51:57;;;;;;;12.07;5.10;;;;;;;;;;5030898;28;20571;-58
2022/12/07 02:54:22;;;;;;;15.17;5.77;;;;;;;;;;5026825;28;20030;-57
2022/12/07 02:56:55;;;;;;;13.80;5.90;;;;;;;;;;5030037;28;20432;-58
2022/12/07 02:59:32;;;;;;;11.98;4.95;;;;;;;;;;5027674;28;20036;-58
2022/12/07 03:02:07;;;;;;;11.32;5.30;;;;;;;;;;5031335;28;20013;-58
2022/12/07 03:04:50;;;;;;;13.40;5.55;;;;;;;;;;5027458;28;20026;-58
2022/12/07 03:07:18;;;;;;;12.02;5.40;;;;;;;;;;5029385;28;20055;-58
2022/12/07 03:09:48;;;;;;;15.38;6.50;;;;;;;;;;5031078;28;20028;-58
2022/12/07 03:12:17;;;;;;;13.23;5.38;;;;;;;;;;5029379;28;20500;-58
2022/12/07 03:14:47;;;;;;;13.45;6.63;;;;;;;;;;5025287;28;20021;-59
2022/12/07 03:17:14;;;;;;;15.30;6.97;;;;;;;;;;5030647;28;20037;-58
2022/12/07 03:19:39;;;;;;;12.15;5.85;;;;;;;;;;5030786;28;20112;-58
2022/12/07 03:22:12;;;;;;;13.27;6.43;;;;;;;;;;5030591;28;20101;-58
2022/12/07 03:24:49;;;;;;;13.43;6.35;;;;;;;;;;5028766;28;20092;-57
2022/12/07 03:27:24;;;;;;;13.23;6.05;;;;;;;;;;5030405;28;20018;-57
2022/12/07 03:29:52;;;;;;;14.63;6.45;;;;;;;;;;5029522;28;20052;-58
2022/12/07 03:32:17;;;;;;;12.90;6.30;;;;;;;;;;5030054;28;20535;-58
2022/12/07 03:34:45;;;;;;;15.95;8.05;;;;;;;;;;5028227;28;20101;-58
2022/12/07 03:37:33;;;;;;;13.55;6.63;;;;;;;;;;5029334;28;20044;-58
2022/12/07 03:40:27;;;;;;;14.55;6.95;;;;;;;;;;5020872;28;20088;-56
2022/12/07 03:42:54;;;;;;;16.42;7.38;;;;;;;;;;5014552;28;20504;-57
2022/12/07 03:45:22;;;;;;;16.33;7.75;;;;;;;;;;5027598;28;20107;-56
2022/12/07 03:47:47;;;;;;;16.55;7.57;;;;;;;;;;5030109;28;20025;-57
2022/12/07 03:50:13;;;;;;;16.15;7.03;;;;;;;;;;5030183;28;20025;-57
2022/12/07 03:52:45;;;;;;;13.98;6.97;;;;;;;;;;5026075;28;20021;-56
2022/12/07 03:55:17;;;;;;;15.27;7.38;;;;;;;;;;5026816;28;20047;-57
2022/12/07 03:57:44;;;;;;;17.77;7.82;;;;;;;;;;5029081;28;20487;-57
2022/12/07 04:00:10;;;;;;;17.08;7.97;;;;;;;;;;5028393;28;20081;-57
2022/12/07 04:02:35;;;;;;;15.80;7.10;;;;;;;;;;5028844;28;20545;-57
2022/12/07 04:05:00;;;;;;;14.40;6.90;;;;;;;;;;5027341;28;20125;-57
2022/12/07 04:07:26;;;;;;;18.33;7.57;;;;;;;;;;5027014;28;20095;-57
2022/12/07 04:09:51;;;;;;;18.23;7.37;;;;;;;;;;5028111;28;20060;-58
2022/12/07 04:12:16;;;;;;;16.67;7.70;;;;;;;;;;5027741;28;20048;-58
2022/12/07 04:14:41;;;;;;;16.70;8.40;;;;;;;;;;5029065;28;20100;-57
2022/12/07 04:17:06;;;;;;;16.43;7.27;;;;;;;;;;5026843;28;20036;-58
2022/12/07 04:19:32;;;;;;;17.90;7.97;;;;;;;;;;5029046;28;20053;-58
2022/12/07 04:21:58;;;;;;;14.80;7.28;;;;;;;;;;5028034;28;20083;-57
2022/12/07 04:24:24;;;;;;;18.02;8.40;;;;;;;;;;5026240;28;20028;-58
2022/12/07 04:26:49;;;;;;;16.55;7.25;;;;;;;;;;5033572;28;20021;-57
2022/12/07 04:29:15;;;;;;;13.33;6.97;;;;;;;;;;5031206;28;20429;-57
2022/12/07 04:31:40;;;;;;;14.90;7.35;;;;;;;;;;5027534;28;20534;-57
2022/12/07 04:34:06;;;;;;;15.40;7.13;;;;;;;;;;5027642;28;20040;-58
2022/12/07 04:36:31;;;;;;;16.40;6.93;;;;;;;;;;5030411;28;20033;-57
2022/12/07 04:38:57;;;;;;;16.40;7.18;;;;;;;;;;5025140;28;20022;-57
2022/12/07 04:41:26;;;;;;;14.10;6.20;;;;;;;;;;5029443;28;20037;-57
2022/12/07 04:43:55;;;;;;;18.23;7.53;;;;;;;;;;5024761;28;20093;-57
2022/12/07 04:46:21;;;;;;;18.48;8.05;;;;;;;;;;5026376;28;20033;-57
2022/12/07 04:48:46;;;;;;;17.23;7.45;;;;;;;;;;5037747;28;20030;-57
2022/12/07 04:51:11;;;;;;;18.30;7.63;;;;;;;;;;5028231;28;20037;-58
2022/12/07 04:53:36;;;;;;;14.53;6.80;;;;;;;;;;5028825;28;20377;-58
2022/12/07 04:56:02;;;;;;;16.25;7.43;;;;;;;;;;5028322;28;20111;-58
2022/12/07 04:58:27;;;;;;;16.30;7.03;;;;;;;;;;5032378;28;20399;-58
2022/12/07 05:00:53;;;;;;;15.07;6.63;;;;;;;;;;5028680;28;20392;-57
2022/12/07 05:03:18;;;;;;;18.02;7.97;;;;;;;;;;5028987;28;20428;-57
2022/12/07 05:05:44;;;;;;;14.57;6.67;;;;;;;;;;5031837;28;20013;-57
2022/12/07 05:08:09;;;;;;;16.40;7.43;;;;;;;;;;5031977;28;20494;-57
2022/12/07 05:10:34;;;;;;;18.20;7.93;;;;;;;;;;5031494;28;20029;-57
2022/12/07 05:12:59;;;;;;;21.93;8.07;;;;;;;;;;5029674;28;20060;-58
2022/12/07 05:15:24;;;;;;;18.87;7.80;;;;;;;;;;5030925;28;20022;-58
2022/12/07 05:17:52;;;;;;;17.63;6.80;;;;;;;;;;5029794;28;20033;-58
2022/12/07 05:20:17;;;;;;;16.17;6.70;;;;;;;;;;5028534;28;20036;-58
2022/12/07 05:22:42;;;;;;;16.80;7.53;;;;;;;;;;5026818;28;20021;-58
2022/12/07 05:25:07;;;;;;;18.50;7.37;;;;;;;;;;5028846;28;20056;-58
2022/12/07 05:27:33;;;;;;;17.20;7.57;;;;;;;;;;5029334;28;20474;-58
2022/12/07 05:29:58;;;;;;;19.83;7.73;;;;;;;;;;5040087;28;20056;-58
2022/12/07 05:32:23;;;;;;;18.03;8.20;;;;;;;;;;5026892;28;20037;-59
2022/12/07 05:34:48;;;;;;;15.27;6.37;;;;;;;;;;5026077;28;20029;-59
2022/12/07 05:37:13;;;;;;;13.87;6.00;;;;;;;;;;5024376;28;20193;-59
2022/12/07 05:39:40;;;;;;;19.00;7.67;;;;;;;;;;5026324;28;20041;-57
2022/12/07 05:42:12;;;;;;;19.02;7.78;;;;;;;;;;5025557;28;20026;-58
2022/12/07 05:44:37;;;;;;;15.32;6.32;;;;;;;;;;5023781;28;20088;-58
2022/12/07 05:47:02;;;;;;;17.90;7.15;;;;;;;;;;5028782;28;20034;-58
2022/12/07 05:49:27;;;;;;;21.07;7.63;;;;;;;;;;5026722;28;20099;-58
2022/12/07 05:51:53;;;;;;;15.30;6.43;;;;;;;;;;5026987;28;20061;-58
2022/12/07 05:54:18;;;;;;;19.33;7.65;;;;;;;;;;5020616;28;20029;-58
2022/12/07 05:56:43;;;;;;;18.67;7.27;;;;;;;;;;5028546;28;20140;-56
2022/12/07 05:59:23;;;;;;;22.73;7.67;;;;;;;;;;5025706;28;20024;-58
2022/12/07 06:01:59;;;;;;;17.58;6.68;;;;;;;;;;5030321;28;20033;-58
2022/12/07 06:04:25;;;;;;;17.65;7.30;;;;;;;;;;5018029;28;20022;-57
2022/12/07 06:06:51;;;;;;;17.17;7.20;;;;;;;;;;5017067;28;20018;-57
2022/12/07 06:09:18;;;;;;;13.75;5.72;;;;;;;;;;5021792;28;20490;-58
2022/12/07 06:14:27;;;;;;;15.65;6.13;;;;;;;;;;5008018;28;20047;-57
2022/12/07 06:16:52;;;;;;;11.75;4.88;;;;;;;;;;5018437;28;20018;-58
2022/12/07 06:19:17;;;;;;;12.77;5.60;;;;;;;;;;5017314;28;20029;-58
2022/12/07 06:21:42;;;;;;;10.23;4.70;;;;;;;;;;5026826;28;20069;-58
2022/12/07 06:24:09;;;;;;;10.07;3.42;;;;;;;;;;5023062;28;20507;-58
2022/12/07 06:26:34;;;;;;;7.93;3.15;;;;;;;;;;5015546;28;20488;-58
2022/12/07 06:29:00;;;;;;;7.23;3.20;;;;;;;;;;5017492;28;20057;-60
2022/12/07 06:31:25;;;;;;;8.60;3.63;;;;;;;;;;5019127;28;20026;-60
2022/12/07 06:33:50;;;;;;;7.63;3.53;;;;;;;;;;5017173;28;20531;-61
2022/12/07 06:36:16;;;;;;;10.20;4.60;;;;;;;;;;5029497;28;20021;-59
2022/12/07 06:38:41;;;;;;;7.80;3.40;;;;;;;;;;5029570;28;20116;-60
2022/12/07 06:41:06;;;;;;;8.67;3.57;;;;;;;;;;5026683;28;20492;-59
2022/12/07 06:43:32;;;;;;;8.50;3.10;;;;;;;;;;5024852;28;20128;-60
2022/12/07 06:45:57;;;;;;;7.47;3.58;;;;;;;;;;5028159;28;20030;-60
2022/12/07 06:48:22;;;;;;;8.37;3.43;;;;;;;;;;5026485;28;20033;-60
2022/12/07 06:50:47;;;;;;;7.10;3.15;;;;;;;;;;5022626;28;20436;-60
2022/12/07 06:53:13;;;;;;;8.38;3.72;;;;;;;;;;5030028;28;20025;-61
2022/12/07 06:55:38;;;;;;;9.10;4.37;;;;;;;;;;5031388;28;20064;-60
2022/12/07 06:58:03;;;;;;;8.77;4.10;;;;;;;;;;5023324;28;20100;-60
2022/12/07 07:00:28;;;;;;;7.30;3.50;;;;;;;;;;5009503;28;20018;-60
2022/12/07 07:02:53;;;;;;;8.90;3.97;;;;;;;;;;5020648;28;20483;-60
2022/12/07 07:05:21;;;;;;;8.40;3.30;;;;;;;;;;5030407;28;20428;-59
2022/12/07 07:07:47;;;;;;;6.72;3.17;;;;;;;;;;5030318;28;20025;-59
2022/12/07 07:10:12;;;;;;;7.93;3.67;;;;;;;;;;5031206;28;20021;-59
2022/12/07 07:12:38;;;;;;;7.97;3.53;;;;;;;;;;5028929;28;20098;-60
2022/12/07 07:15:03;;;;;;;6.83;3.10;;;;;;;;;;5031282;28;20428;-59
2022/12/07 07:17:28;;;;;;;6.70;3.30;;;;;;;;;;5029473;28;20028;-60
2022/12/07 07:19:53;;;;;;;6.77;2.87;;;;;;;;;;5030918;28;20017;-60
2022/12/07 07:22:18;;;;;;;8.43;3.37;;;;;;;;;;5030450;28;20030;-59
2022/12/07 07:24:44;;;;;;;8.53;3.73;;;;;;;;;;5028146;28;20087;-60
2022/12/07 07:27:09;;;;;;;7.87;3.60;;;;;;;;;;5026233;28;20032;-60
2022/12/07 07:29:34;;;;;;;9.63;3.53;;;;;;;;;;5031027;28;20017;-60
2022/12/07 07:31:59;;;;;;;6.03;2.92;;;;;;;;;;5027996;28;20104;-60
2022/12/07 07:34:24;;;;;;;7.97;3.40;;;;;;;;;;5028813;28;20080;-60
2022/12/07 07:36:49;;;;;;;7.73;3.40;;;;;;;;;;5030812;28;20021;-61
2022/12/07 07:39:15;;;;;;;7.87;2.97;;;;;;;;;;5030940;28;20029;-60
2022/12/07 07:41:40;;;;;;;7.83;3.50;;;;;;;;;;5028798;28;20017;-60
2022/12/07 07:44:05;;;;;;;8.90;3.37;;;;;;;;;;5029376;28;20570;-60
2022/12/07 07:46:31;;;;;;;7.23;3.20;;;;;;;;;;5030862;28;20022;-60
2022/12/07 07:48:56;;;;;;;5.68;2.90;;;;;;;;;;5029198;28;20021;-60
2022/12/07 07:51:21;;;;;;;6.88;3.20;;;;;;;;;;5031288;28;20073;-61
2022/12/07 07:53:46;;;;;;;7.73;3.40;;;;;;;;;;5017455;28;20049;-60
2022/12/07 07:56:11;;;;;;;7.60;3.50;;;;;;;;;;5030348;28;20034;-61
2022/12/07 07:58:39;;;;;;;6.90;3.37;;;;;;;;;;5030450;28;20027;-60
2022/12/07 08:01:05;;;;;;;6.78;3.28;;;;;;;;;;5030652;28;20033;-60
2022/12/07 08:03:30;;;;;;;7.63;3.88;;;;;;;;;;5027947;28;20045;-60
2022/12/07 08:05:55;;;;;;;7.30;3.60;;;;;;;;;;5030515;28;20104;-61
2022/12/07 08:08:20;;;;;;;7.90;3.93;;;;;;;;;;5030384;28;20017;-59
2022/12/07 08:10:45;;;;;;;8.47;4.27;;;;;;;;;;5027641;28;20079;-61
2022/12/07 08:13:10;;;;;;;8.17;4.60;;;;;;;;;;5027887;28;20133;-61
2022/12/07 08:15:37;;;;;;;8.90;4.18;;;;;;;;;;5030011;28;20017;-61
2022/12/07 08:18:02;;;;;;;9.32;4.82;;;;;;;;;;5029833;28;20033;-61
2022/12/07 08:20:29;;;;;;;10.20;4.70;;;;;;;;;;5028721;28;20103;-60
2022/12/07 08:22:54;;;;;;;10.18;5.28;;;;;;;;;;5030198;28;20033;-65
2022/12/07 08:25:21;;;;;;;11.27;5.27;;;;;;;;;;5026820;28;20503;-61
2022/12/07 08:27:46;;;;;;;;;;;;;;;;;;5030592;28;20111;-60
2022/12/07 08:30:12;;;;;;;10.90;5.15;;;;;;;;;;5027539;28;19909;-61
2022/12/07 08:32:37;;;;;;;10.13;5.17;;;;;;;;;;5029765;28;20104;-59
2022/12/07 08:35:02;;;;;;;10.30;4.83;;;;;;;;;;5029516;28;20451;-60
2022/12/07 08:37:27;;;;;;;10.53;4.77;;;;;;;;;;5030545;28;20025;-61
2022/12/07 08:39:53;;;;;;;10.67;4.70;;;;;;;;;;5027598;28;20017;-61
2022/12/07 08:42:18;;;;;;;10.40;4.60;;;;;;;;;;5027324;28;20033;-61
2022/12/07 08:44:43;;;;;;;12.17;5.27;;;;;;;;;;5029942;28;20101;-61
2022/12/07 08:47:09;;;;;;;9.45;4.80;;;;;;;;;;5030272;28;20021;-62
2022/12/07 08:49:40;;;;;;;8.20;4.40;;;;;;;;;;5028221;28;20029;-61
2022/12/07 08:52:05;;;;;;;8.40;4.15;;;;;;;;;;5027851;28;20059;-61
2022/12/07 08:54:33;;;;;;;12.38;5.07;;;;;;;;;;5029838;28;20056;-61
2022/12/07 08:56:58;;;;;;;10.95;4.72;;;;;;;;;;5029160;28;20018;-61
2022/12/07 08:59:23;;;;;;;9.18;3.97;;;;;;;;;;5029947;28;20407;-60
2022/12/07 09:01:48;;;;;;;11.00;5.27;;;;;;;;;;5027709;28;20071;-60
2022/12/07 09:04:15;;;;;;;10.55;3.95;;;;;;;;;;5028884;28;20029;-59
2022/12/07 09:06:40;;;;;;;10.05;4.80;;;;;;;;;;5029749;28;20041;-60
2022/12/07 09:09:06;;;;;;;10.57;5.13;;;;;;;;;;5029308;28;20030;-60
2022/12/07 09:11:31;;;;;;;10.85;4.72;;;;;;;;;;5029422;28;20528;-61
2022/12/07 09:13:56;;;;;;;11.70;4.97;;;;;;;;;;5026745;28;20038;-60
2022/12/07 09:16:22;;;;;;;9.17;3.70;;;;;;;;;;5029712;28;20376;-61
2022/12/07 09:18:47;;;;;;;10.13;5.30;;;;;;;;;;5029039;28;20029;-60
2022/12/07 09:21:12;;;;;;;9.13;4.27;;;;;;;;;;5009913;28;20029;-61
2022/12/07 09:23:37;;;;;;;11.20;4.97;;;;;;;;;;5019552;28;20104;-61
2022/12/07 09:26:04;;;;;;;8.17;4.00;;;;;;;;;;5027998;28;20025;-60
2022/12/07 09:28:30;;;;;;;9.85;4.35;;;;;;;;;;5029488;28;20417;-62
2022/12/07 09:30:55;;;;;;;7.80;3.78;;;;;;;;;;5029567;28;20112;-61
2022/12/07 09:33:20;;;;;;;8.82;4.53;;;;;;;;;;5027527;28;20025;-60
2022/12/07 09:35:46;;;;;;;8.80;3.87;;;;;;;;;;5028638;28;20081;-60
2022/12/07 09:38:12;;;;;;;8.60;3.90;;;;;;;;;;5029466;28;20032;-59
2022/12/07 09:40:37;;;;;;;7.35;3.42;;;;;;;;;;5029415;28;20380;-60
2022/12/07 09:43:02;;;;;;;8.03;3.57;;;;;;;;;;5028472;28;20042;-60
2022/12/07 09:45:32;;;;;;;8.63;3.73;;;;;;;;;;5030374;28;20040;-60
2022/12/07 09:47:58;;;;;;;7.85;3.45;;;;;;;;;;5032901;28;20022;-60
2022/12/07 09:50:24;;;;;;;8.55;4.03;;;;;;;;;;5029903;28;20503;-61
2022/12/07 09:52:50;;;;;;;9.20;3.58;;;;;;;;;;5032732;28;20045;-61
2022/12/07 09:55:19;;;;;;;10.15;3.80;;;;;;;;;;5033097;28;20055;-61
2022/12/07 09:57:44;;;;;;;8.68;3.78;;;;;;;;;;5032605;28;20098;-59
2022/12/07 10:00:12;;;;;;;9.23;4.18;;;;;;;;;;5030442;28;20472;-60
2022/12/07 10:02:39;;;;;;;8.20;3.40;;;;;;;;;;5029180;28;20061;-60
2022/12/07 10:05:04;;;;;;;;;;;;;;;;;;5032061;28;20033;-60
2022/12/07 10:07:29;;;;;;;7.68;3.13;;;;;;;;;;5032776;28;19905;-61
2022/12/07 10:09:55;;;;;;;9.88;3.03;;;;;;;;;;5030922;28;20377;-59
2022/12/07 10:12:20;;;;;;;7.20;2.90;;;;;;;;;;5029408;28;20049;-60
2022/12/07 10:15:05;;;;;;;6.80;3.00;;;;;;;;;;5032544;28;20027;-61
2022/12/07 10:17:35;;;;;;;7.55;3.42;;;;;;;;;;5032594;28;20032;-60
2022/12/07 10:20:13;;;;;;;7.30;2.85;;;;;;;;;;5029858;28;20386;-59
2022/12/07 10:22:38;;;;;;;7.10;2.85;;;;;;;;;;5029378;28;20028;-60
2022/12/07 10:25:17;;;;;;;8.32;3.10;;;;;;;;;;5031402;28;20029;-60
2022/12/07 10:27:42;;;;;;;9.77;3.58;;;;;;;;;;5029317;28;20033;-61
2022/12/07 10:30:13;;;;;;;6.20;2.92;;;;;;;;;;5030449;28;20036;-60
2022/12/07 10:32:39;;;;;;;7.30;2.90;;;;;;;;;;5031320;28;20033;-61
2022/12/07 10:35:22;;;;;;;7.90;3.20;;;;;;;;;;5031252;28;20025;-60
2022/12/07 10:37:47;;;;;;;9.43;3.20;;;;;;;;;;5031783;28;20096;-65
2022/12/07 10:40:30;;;;;;;7.55;2.70;;;;;;;;;;5030308;28;20025;-61
2022/12/07 10:43:01;;;;;;;6.88;3.05;;;;;;;;;;5030157;28;20014;-61
2022/12/07 10:45:26;;;;;;;8.02;2.88;;;;;;;;;;5030670;28;20311;-61
2022/12/07 10:47:55;;;;;;;10.10;3.77;;;;;;;;;;5026540;28;20040;-60
2022/12/07 10:50:39;;;;;;;7.95;3.20;;;;;;;;;;5028620;28;20034;-60
2022/12/07 10:53:16;;;;;;;9.10;3.50;;;;;;;;;;5028022;28;20037;-61
2022/12/07 10:55:42;;;;;;;9.65;3.55;;;;;;;;;;5031588;28;20022;-61
2022/12/07 10:58:10;;;;;;;9.50;3.50;;;;;;;;;;5029670;28;20165;-60
2022/12/07 11:00:55;;;;;;;8.02;2.83;;;;;;;;;;5029590;28;20195;-61
2022/12/07 11:03:31;;;;;;;7.10;2.80;;;;;;;;;;5031198;28;20079;-61
2022/12/07 11:06:04;;;;;;;9.63;2.90;;;;;;;;;;5027980;28;20614;-61
2022/12/07 11:08:36;;;;;;;7.93;3.22;;;;;;;;;;5031460;28;20033;-60
2022/12/07 11:11:23;;;;;;;7.60;3.00;;;;;;;;;;5031378;28;20025;-61
2022/12/07 11:13:56;;;;;;;7.95;3.25;;;;;;;;;;5031193;28;20056;-61
2022/12/07 11:16:21;;;;;;;10.85;3.60;;;;;;;;;;5028442;28;20049;-61
2022/12/07 11:19:01;;;;;;;7.17;3.60;;;;;;;;;;5031175;28;20056;-61
2022/12/07 11:21:31;;;;;;;7.43;2.97;;;;;;;;;;5030458;28;20088;-61
2022/12/07 11:24:16;;;;;;;8.68;3.10;;;;;;;;;;5031061;28;20441;-61
2022/12/07 11:27:01;;;;;;;8.73;3.17;;;;;;;;;;5027473;28;20423;-61
2022/12/07 11:29:32;;;;;;;8.98;3.60;;;;;;;;;;5031371;28;20045;-61
2022/12/07 11:32:19;;;;;;;9.70;3.55;;;;;;;;;;5030694;28;20116;-60
2022/12/07 11:34:56;;;;;;;7.57;3.00;;;;;;;;;;5029811;28;21140;-60
2022/12/07 11:37:25;;;;;;;7.80;3.22;;;;;;;;;;5028540;28;20388;-60
2022/12/07 11:39:52;;;;;;;7.80;3.47;;;;;;;;;;5030498;28;20483;-61
2022/12/07 11:42:22;;;;;;;7.78;3.38;;;;;;;;;;5030800;28;20025;-63
2022/12/07 11:44:51;;;;;;;10.57;3.72;;;;;;;;;;5030147;28;20022;-60
2022/12/07 11:47:21;;;;;;;8.82;3.92;;;;;;;;;;5027785;28;20033;-60
2022/12/07 11:50:21;;;;;;;8.85;3.20;;;;;;;;;;5030461;28;20037;-60
2022/12/07 11:52:52;;;;;;;10.27;3.72;;;;;;;;;;5008290;28;20022;-60
2022/12/07 11:55:27;;;;;;;8.65;4.05;;;;;;;;;;5025886;28;20033;-60
2022/12/07 11:58:04;;;;;;;8.23;3.63;;;;;;;;;;5026909;28;20129;-61
2022/12/07 12:00:29;;;;;;;8.75;3.90;;;;;;;;;;5030348;28;20672;-61
2022/12/07 12:03:09;;;;;;;10.87;4.27;;;;;;;;;;5030445;28;20055;-61
2022/12/07 12:05:34;;;;;;;9.70;3.88;;;;;;;;;;5029869;28;20016;-61
2022/12/07 12:08:02;;;;;;;12.27;4.67;;;;;;;;;;5027745;28;20092;-60
2022/12/07 12:10:37;;;;;;;11.20;3.70;;;;;;;;;;5030325;28;20117;-60
2022/12/07 12:13:16;;;;;;;11.27;4.78;;;;;;;;;;5029888;28;20069;-60
2022/12/07 12:15:41;;;;;;;10.70;4.18;;;;;;;;;;5028691;28;20025;-59
2022/12/07 12:18:12;;;;;;;8.27;3.67;;;;;;;;;;5028011;28;20029;-60
2022/12/07 12:20:37;;;;;;;8.05;3.47;;;;;;;;;;5028718;28;20087;-59
2022/12/07 12:23:16;;;;;;;9.50;3.87;;;;;;;;;;5030140;28;20017;-60
2022/12/07 12:25:42;;;;;;;8.75;3.78;;;;;;;;;;5030449;28;20049;-60
2022/12/07 12:28:16;;;;;;;9.15;3.60;;;;;;;;;;5028251;28;20435;-60
2022/12/07 12:30:41;;;;;;;7.78;3.80;;;;;;;;;;5026895;28;20036;-61
2022/12/07 12:33:14;;;;;;;10.73;3.80;;;;;;;;;;5029884;28;20030;-61
2022/12/07 12:35:40;;;;;;;8.02;3.78;;;;;;;;;;5028866;28;20021;-60
2022/12/07 12:38:24;;;;;;;7.97;3.70;;;;;;;;;;5026497;28;20014;-61
2022/12/07 12:40:49;;;;;;;10.55;3.35;;;;;;;;;;5026236;28;20041;-61
2022/12/07 12:43:33;;;;;;;7.70;3.23;;;;;;;;;;5029997;28;20112;-60
2022/12/07 12:46:17;;;;;;;5.75;2.47;;;;;;;;;;5029981;28;20024;-61
2022/12/07 12:48:42;;;;;;;7.15;2.40;;;;;;;;;;5027773;28;20028;-61
2022/12/07 12:51:26;;;;;;;5.47;2.00;;;;;;;;;;5027513;28;20025;-62
2022/12/07 12:53:51;;;;;;;5.63;1.83;;;;;;;;;;5029495;28;20504;-62
2022/12/07 12:56:39;;;;;;;5.13;1.60;;;;;;;;;;5029608;28;20026;-61
2022/12/07 12:59:31;;;;;;;5.35;1.50;;;;;;;;;;5025032;28;20041;-60
2022/12/07 13:02:07;;;;;;;5.63;2.20;;;;;;;;;;5023000;28;20488;-61
2022/12/07 13:04:50;;;;;;;5.53;2.00;;;;;;;;;;5029286;28;20030;-61
2022/12/07 13:07:34;;;;;;;5.25;2.00;;;;;;;;;;5026844;28;20056;-61
2022/12/07 13:09:59;;;;;;;6.50;2.38;;;;;;;;;;5029884;28;20028;-61
2022/12/07 13:12:25;;;;;;;5.33;2.10;;;;;;;;;;5027335;28;20049;-60
2022/12/07 13:14:57;;;;;;;8.10;2.55;;;;;;;;;;5027397;28;20042;-60
2022/12/07 13:17:32;;;;;;;7.75;2.30;;;;;;;;;;5025769;28;20139;-60
2022/12/07 13:19:58;;;;;;;5.85;2.47;;;;;;;;;;5033326;28;20029;-61
2022/12/07 13:22:29;;;;;;;5.63;2.47;;;;;;;;;;5030171;28;20423;-61
2022/12/07 13:25:13;;;;;;;4.78;1.70;;;;;;;;;;5031782;28;20536;-61
2022/12/07 13:27:39;;;;;;;8.77;2.13;;;;;;;;;;5031431;28;20075;-62
2022/12/07 13:30:23;;;;;;;4.75;2.33;;;;;;;;;;5032978;28;20018;-61
2022/12/07 13:32:55;;;;;;;6.32;2.22;;;;;;;;;;5030768;28;20056;-61
2022/12/07 13:35:33;;;;;;;6.75;1.83;;;;;;;;;;5033142;28;20396;-61
2022/12/07 13:37:58;;;;;;;8.30;2.20;;;;;;;;;;5031293;28;20385;-60
2022/12/07 13:40:24;;;;;;;6.80;2.60;;;;;;;;;;5033073;28;20032;-61
2022/12/07 13:42:57;;;;;;;5.57;2.20;;;;;;;;;;5032164;28;20029;-61
2022/12/07 13:45:47;;;;;;;6.40;2.25;;;;;;;;;;5033224;28;20067;-61
2022/12/07 13:48:15;;;;;;;6.65;2.42;;;;;;;;;;5030739;28;20083;-61
2022/12/07 13:50:40;;;;;;;7.25;2.50;;;;;;;;;;5032927;28;20072;-60
2022/12/07 13:53:10;;;;;;;5.85;2.90;;;;;;;;;;5032111;28;20488;-60
2022/12/07 13:55:36;;;;;;;7.95;3.03;;;;;;;;;;5032926;28;20029;-60
2022/12/07 13:58:01;;;;;;;7.53;3.73;;;;;;;;;;5032889;28;20021;-60
2022/12/07 14:00:27;;;;;;;7.83;3.37;;;;;;;;;;5028760;28;20095;-60
2022/12/07 14:02:55;;;;;;;7.40;3.05;;;;;;;;;;5032575;28;20239;-60
2022/12/07 14:05:24;;;;;;;7.32;2.75;;;;;;;;;;5032313;28;20381;-61
2022/12/07 14:07:57;;;;;;;8.90;3.55;;;;;;;;;;5031801;28;20072;-60
2022/12/07 14:10:24;;;;;;;6.65;3.13;;;;;;;;;;5029111;28;20030;-59
2022/12/07 14:12:49;;;;;;;7.75;3.10;;;;;;;;;;5031081;28;20053;-60
2022/12/07 14:15:20;;;;;;;8.77;3.78;;;;;;;;;;5027742;28;20044;-59
2022/12/07 14:17:49;;;;;;;7.65;3.35;;;;;;;;;;5032413;28;20040;-59
2022/12/07 14:20:34;;;;;;;7.65;3.60;;;;;;;;;;5032165;28;20029;-59
2022/12/07 14:23:08;;;;;;;10.55;3.78;;;;;;;;;;5029910;28;20041;-60
2022/12/07 14:25:43;;;;;;;8.32;4.35;;;;;;;;;;5030852;28;20052;-60
2022/12/07 14:28:24;;;;;;;12.05;7.28;;;;;;;;;;5032073;28;20568;-60
2022/12/07 14:30:49;;;;;;;9.52;5.80;;;;;;;;;;5031533;28;20036;-60
2022/12/07 14:33:14;;;;;;;10.57;4.80;;;;;;;;;;5027700;28;20025;-60
2022/12/07 14:35:40;;;;;;;8.90;4.00;;;;;;;;;;5018895;28;20536;-59
2022/12/07 14:38:05;;;;;;;7.38;3.45;;;;;;;;;;5031341;28;20021;-60
2022/12/07 14:40:31;;;;;;;9.10;3.77;;;;;;;;;;5031821;28;20167;-61
2022/12/07 14:43:09;;;;;;;10.60;4.80;;;;;;;;;;5031159;28;20025;-61
2022/12/07 14:45:34;;;;;;;10.73;4.05;;;;;;;;;;5030599;28;20017;-60
2022/12/07 14:47:59;;;;;;;10.13;4.10;;;;;;;;;;5031938;28;20032;-61